KVRB/VRB METAR and TAF weather

Enter ICAO airport designator
Station Type Date Time Source
KVRB METAR 2019/10/23 01:53 UTC NOAA

KVRB 230153Z AUTO 28007KT 10SM FEW049 BKN110 28/23 A3001 RMK AO2 SLP160 T02780228


Station Type Date Time Source
KVRB Decoded METAR 2019/10/23 01:53 UTC NOAA

VERO BEACH MUNICIPAL AIRPORT , FL, United States (KVRB) 27-39N 080-25W 10M
Oct 22, 2019 - 09:53 PM EDT / 2019.10.23 0153 UTC
Wind: from the W (280 degrees) at 8 MPH (7 KT):0
Visibility: 10 mile(s):0
Sky conditions: mostly cloudy
Temperature: 82.0 F (27.8 C)
Dew Point: 73.0 F (22.8 C)
Relative Humidity: 74%
Pressure (altimeter): 30.01 in. Hg (1016 hPa)
ob: KVRB 230153Z AUTO 28007KT 10SM FEW049 BKN110 28/23 A3001 RMK AO2 SLP160 T02780228
cycle: 2

Station Type Date Time Source
KVRB TAF 2019/10/22 18:48 UTC NOAA

TAF KVRB 221744Z 2218/2318 19008KT P6SM SCT035 BKN060
FM222100 16007KT P6SM VCSH SCT035 SCT050
FM230300 28006KT P6SM SCT040 BKN250
FM230900 36009KT P6SM BKN250
FM231500 02014KT P6SM SCT040

Example: see airport list